createdAt,value
2023-03-22T00:01:17.734Z,12.35
2023-03-22T00:03:44.121Z,13.35
2023-03-22T00:06:10.516Z,15.20
2023-03-22T00:08:36.864Z,18.08
2023-03-22T00:11:04.318Z,13.15
2023-03-22T00:13:31.241Z,11.18
2023-03-22T00:15:57.667Z,13.73
2023-03-22T00:18:24.005Z,14.45
2023-03-22T00:20:52.430Z,16.67
2023-03-22T00:23:19.273Z,13.80
2023-03-22T00:25:46.522Z,13.25
2023-03-22T00:28:13.885Z,12.20
2023-03-22T00:30:40.855Z,11.20
2023-03-22T00:33:07.409Z,13.13
2023-03-22T00:35:33.908Z,10.63
2023-03-22T00:38:00.294Z,13.73
2023-03-22T00:40:26.595Z,12.35
2023-03-22T00:42:52.888Z,13.50
2023-03-22T00:45:19.353Z,14.25
2023-03-22T00:47:45.697Z,16.00
2023-03-22T00:50:12.065Z,11.57
2023-03-22T00:52:38.354Z,12.55
2023-03-22T00:55:05.220Z,11.30
2023-03-22T00:57:31.533Z,12.73
2023-03-22T00:59:57.888Z,10.77
2023-03-22T01:02:24.512Z,17.27
2023-03-22T01:04:50.879Z,15.18
2023-03-22T01:07:17.762Z,15.18
2023-03-22T01:09:44.887Z,12.45
2023-03-22T01:12:11.812Z,11.50
2023-03-22T01:14:38.643Z,12.38
2023-03-22T01:17:05.418Z,13.45
2023-03-22T01:19:31.718Z,15.80
2023-03-22T01:21:58.037Z,13.82
2023-03-22T01:24:24.404Z,12.43
2023-03-22T01:26:50.793Z,13.52
2023-03-22T01:29:17.230Z,12.90
2023-03-22T01:31:43.930Z,13.55
2023-03-22T01:34:11.346Z,12.75
2023-03-22T01:36:37.679Z,11.82
2023-03-22T01:39:04.443Z,15.00
2023-03-22T01:41:31.078Z,11.15
2023-03-22T01:44:17.588Z,17.27
2023-03-22T01:46:46.380Z,16.33
2023-03-22T01:49:25.276Z,12.18
2023-03-22T01:51:54.910Z,12.23
2023-03-22T01:54:30.307Z,12.00
2023-03-22T01:56:57.325Z,12.10
2023-03-22T01:59:24.291Z,12.73
2023-03-22T02:01:50.632Z,17.27
2023-03-22T02:04:20.139Z,16.85
2023-03-22T02:06:47.333Z,15.52
2023-03-22T02:09:15.437Z,16.15
2023-03-22T02:11:43.936Z,14.77
2023-03-22T02:14:33.308Z,12.70
2023-03-22T02:17:18.914Z,14.25
2023-03-22T02:20:18.019Z,11.38
2023-03-22T02:23:10.615Z,12.48
2023-03-22T02:26:01.572Z,12.48
2023-03-22T02:28:45.480Z,13.23
2023-03-22T02:31:41.733Z,13.07
2023-03-22T02:34:33.103Z,12.52
2023-03-22T02:37:21.261Z,16.55
2023-03-22T02:39:53.514Z,15.38
2023-03-22T02:42:37.843Z,13.20
2023-03-22T02:45:20.213Z,13.70
2023-03-22T02:48:01.740Z,14.50
2023-03-22T02:50:33.512Z,20.25
2023-03-22T02:53:20.294Z,16.48
2023-03-22T02:56:00.765Z,11.68
2023-03-22T02:58:34.224Z,13.73
2023-03-22T03:01:07.064Z,13.32
2023-03-22T03:03:34.819Z,11.68
2023-03-22T03:06:07.593Z,16.15
2023-03-22T03:08:35.275Z,14.10
2023-03-22T03:11:01.584Z,11.93
2023-03-22T03:13:27.904Z,13.05
2023-03-22T03:15:57.447Z,13.27
2023-03-22T03:18:35.950Z,13.20
2023-03-22T03:21:14.212Z,14.10
2023-03-22T03:23:58.644Z,13.10
2023-03-22T03:26:48.761Z,11.95
2023-03-22T03:29:33.193Z,14.25
2023-03-22T03:32:10.805Z,16.35
2023-03-22T03:35:20.205Z,12.68
2023-03-22T03:37:51.203Z,13.10
2023-03-22T03:40:23.722Z,15.27
2023-03-22T03:42:52.927Z,17.67
2023-03-22T03:45:20.223Z,12.93
2023-03-22T03:47:47.902Z,14.98
2023-03-22T03:50:16.117Z,13.88
2023-03-22T03:52:42.962Z,15.27
2023-03-22T03:55:09.597Z,14.15
2023-03-22T03:57:35.917Z,13.50
2023-03-22T04:00:02.570Z,17.52
2023-03-22T04:02:28.928Z,13.18
2023-03-22T04:04:55.264Z,12.85
2023-03-22T04:07:21.576Z,15.13
2023-03-22T04:09:47.929Z,17.05
2023-03-22T04:12:14.345Z,14.63
2023-03-22T04:14:40.649Z,19.00
2023-03-22T04:17:07.382Z,19.38
2023-03-22T04:19:33.818Z,18.95
2023-03-22T04:22:01.200Z,15.43
2023-03-22T04:24:27.503Z,17.38
2023-03-22T04:26:54.318Z,14.32
2023-03-22T04:29:20.778Z,16.30
2023-03-22T04:31:47.566Z,17.25
2023-03-22T04:34:13.861Z,16.13
2023-03-22T04:36:40.180Z,16.10
2023-03-22T04:39:09.725Z,18.65
2023-03-22T04:41:36.742Z,16.67
2023-03-22T04:44:07.476Z,15.48
2023-03-22T04:46:36.677Z,17.95
2023-03-22T04:49:04.445Z,15.10
2023-03-22T04:51:30.897Z,16.77
2023-03-22T04:53:58.153Z,16.65
2023-03-22T04:56:26.078Z,16.83
2023-03-22T04:58:52.516Z,16.90
2023-03-22T05:01:18.881Z,20.58
2023-03-22T05:03:45.572Z,16.23
2023-03-22T05:06:11.974Z,15.48
2023-03-22T05:08:38.436Z,18.15
2023-03-22T05:11:11.907Z,14.85
2023-03-22T05:13:38.403Z,14.18
2023-03-22T05:16:05.876Z,18.27
2023-03-22T05:18:32.398Z,16.23
2023-03-22T05:21:00.398Z,15.98
2023-03-22T05:23:26.708Z,19.25
2023-03-22T05:25:53.720Z,15.60
2023-03-22T05:28:21.541Z,17.45
2023-03-22T05:30:49.037Z,17.48
2023-03-22T05:33:15.884Z,15.02
2023-03-22T05:35:42.710Z,19.10
2023-03-22T05:38:09.898Z,16.63
2023-03-22T05:40:36.210Z,14.80
2023-03-22T05:43:02.564Z,17.23
2023-03-22T05:45:28.853Z,18.95
2023-03-22T05:47:55.289Z,15.30
2023-03-22T05:50:23.243Z,19.98
2023-03-22T05:52:49.940Z,15.57
2023-03-22T05:55:16.653Z,18.15
2023-03-22T05:57:44.370Z,15.75
2023-03-22T06:00:13.649Z,17.30
2023-03-22T06:02:40.951Z,19.75
2023-03-22T06:05:07.885Z,14.55
2023-03-22T06:07:34.234Z,14.93
2023-03-22T06:10:00.552Z,15.55
2023-03-22T06:12:29.536Z,12.35
2023-03-22T06:14:56.385Z,17.33
2023-03-22T06:17:22.795Z,13.68
2023-03-22T06:19:52.603Z,15.82
2023-03-22T06:22:19.300Z,16.60
2023-03-22T06:24:45.607Z,14.00
2023-03-22T06:27:11.979Z,14.13
2023-03-22T06:29:38.327Z,15.35
2023-03-22T06:32:04.965Z,15.20
2023-03-22T06:34:31.259Z,11.35
2023-03-22T06:36:57.614Z,13.00
2023-03-22T06:39:24.288Z,12.40
2023-03-22T06:41:50.859Z,17.08
2023-03-22T06:44:17.858Z,14.15
2023-03-22T06:46:44.231Z,13.32
2023-03-22T06:49:10.625Z,11.30
2023-03-22T06:51:36.961Z,14.18
2023-03-22T06:54:03.398Z,13.30
2023-03-22T06:56:29.695Z,12.48
2023-03-22T06:58:55.992Z,13.80
2023-03-22T07:01:22.484Z,10.35
2023-03-22T07:03:48.915Z,13.18
2023-03-22T07:06:15.232Z,11.25
2023-03-22T07:08:41.542Z,11.27
2023-03-22T07:11:07.891Z,20.00
2023-03-22T07:13:34.267Z,10.93
2023-03-22T07:16:01.843Z,14.57
2023-03-22T07:18:29.251Z,14.50
2023-03-22T07:20:55.791Z,9.15
2023-03-22T07:23:22.398Z,10.60
2023-03-22T07:25:49.088Z,16.70
2023-03-22T07:28:16.024Z,12.48
2023-03-22T07:30:42.681Z,13.52
2023-03-22T07:33:10.735Z,11.88
2023-03-22T07:35:37.985Z,13.05
2023-03-22T07:38:05.322Z,13.77
2023-03-22T07:40:32.172Z,11.20
2023-03-22T07:42:58.563Z,12.90
2023-03-22T07:45:25.914Z,12.88
2023-03-22T07:47:52.392Z,11.90
2023-03-22T07:50:19.051Z,10.20
2023-03-22T07:52:45.381Z,12.45
2023-03-22T07:55:13.698Z,13.50
2023-03-22T07:57:40.406Z,11.38
2023-03-22T08:00:09.241Z,12.77
2023-03-22T08:02:35.792Z,13.88
2023-03-22T08:05:02.190Z,12.40
2023-03-22T08:07:28.490Z,13.95
2023-03-22T08:09:54.812Z,13.23
2023-03-22T08:12:21.106Z,13.20
2023-03-22T08:14:47.425Z,9.80
2023-03-22T08:17:13.835Z,12.60
2023-03-22T08:19:40.136Z,11.25
2023-03-22T08:22:06.483Z,12.85
2023-03-22T08:24:32.893Z,12.00
2023-03-22T08:26:59.272Z,15.25
2023-03-22T08:29:25.649Z,9.82
2023-03-22T08:31:52.067Z,10.60
2023-03-22T08:34:18.814Z,10.80
2023-03-22T08:36:45.200Z,13.35
2023-03-22T08:39:11.678Z,11.20
2023-03-22T08:41:39.055Z,8.60
2023-03-22T08:44:05.414Z,9.95
2023-03-22T08:46:31.992Z,10.40
2023-03-22T08:48:58.434Z,10.52
2023-03-22T08:51:24.750Z,9.20
2023-03-22T08:53:51.184Z,11.30
2023-03-22T08:56:17.581Z,11.00
2023-03-22T08:58:44.065Z,12.27
2023-03-22T09:01:15.141Z,8.25
2023-03-22T09:03:41.801Z,9.30
2023-03-22T09:06:09.645Z,8.13
2023-03-22T09:08:36.689Z,9.85
2023-03-22T09:11:03.157Z,7.07
2023-03-22T09:13:29.529Z,10.82
2023-03-22T09:15:56.407Z,7.28
2023-03-22T09:18:23.774Z,6.78
2023-03-22T09:20:50.510Z,10.90
2023-03-22T09:23:18.256Z,10.18
2023-03-22T09:25:47.658Z,7.63
2023-03-22T09:28:14.974Z,8.15
2023-03-22T09:30:41.665Z,11.70
2023-03-22T09:33:08.839Z,8.40
2023-03-22T09:35:35.219Z,12.90
2023-03-22T09:38:01.600Z,8.80
2023-03-22T09:40:30.879Z,11.55
2023-03-22T09:43:11.588Z,11.13
2023-03-22T09:45:42.799Z,12.57
2023-03-22T09:48:37.329Z,8.18
2023-03-22T09:51:07.040Z,7.07
2023-03-22T09:53:33.980Z,9.18
2023-03-22T09:56:10.215Z,8.15
2023-03-22T09:58:36.471Z,6.57
2023-03-22T10:01:06.932Z,11.70
2023-03-22T10:03:53.822Z,9.25
2023-03-22T10:06:26.086Z,7.15
2023-03-22T10:09:04.296Z,9.13
2023-03-22T10:11:46.225Z,8.00
2023-03-22T10:14:38.816Z,11.02
2023-03-22T10:17:10.774Z,7.15
2023-03-22T10:19:43.172Z,8.02
2023-03-22T10:22:15.425Z,8.15
2023-03-22T10:24:45.333Z,6.88
2023-03-22T10:27:17.038Z,6.95
2023-03-22T10:29:48.695Z,5.72
2023-03-22T10:32:20.971Z,10.75
2023-03-22T10:34:47.412Z,5.43
2023-03-22T10:37:17.733Z,5.68
2023-03-22T10:39:47.448Z,11.50
2023-03-22T10:42:17.645Z,6.57
2023-03-22T10:44:47.221Z,8.35
2023-03-22T10:47:16.977Z,9.52
2023-03-22T10:49:49.134Z,4.35
2023-03-22T10:52:38.210Z,8.52
2023-03-22T10:55:10.138Z,7.65
2023-03-22T10:57:36.691Z,5.03
2023-03-22T11:00:05.237Z,6.65
2023-03-22T11:02:32.549Z,5.75
2023-03-22T11:05:04.774Z,7.10
2023-03-22T11:07:38.309Z,8.35
2023-03-22T11:10:10.405Z,6.85
2023-03-22T11:12:40.157Z,8.98
2023-03-22T11:15:18.882Z,5.35
2023-03-22T11:17:45.402Z,7.63
2023-03-22T11:20:17.052Z,10.50
2023-03-22T11:22:46.068Z,6.85
2023-03-22T11:25:26.158Z,7.57
2023-03-22T11:28:06.446Z,5.90
2023-03-22T11:30:34.167Z,6.78
2023-03-22T11:33:16.165Z,8.75
2023-03-22T11:35:53.085Z,7.65
2023-03-22T11:38:25.800Z,8.13
2023-03-22T11:41:04.566Z,7.03
2023-03-22T11:43:43.116Z,6.90
2023-03-22T11:46:10.816Z,6.60
2023-03-22T11:48:40.509Z,6.28
2023-03-22T11:51:13.355Z,5.28
2023-03-22T11:53:43.410Z,7.90
2023-03-22T11:56:12.196Z,8.90
2023-03-22T11:58:47.519Z,7.38
2023-03-22T12:01:20.994Z,8.27
2023-03-22T12:03:54.701Z,5.50
2023-03-22T12:06:31.729Z,7.70
2023-03-22T12:09:21.992Z,7.03
2023-03-22T12:11:52.903Z,6.90
2023-03-22T12:14:29.583Z,7.25
2023-03-22T12:17:11.257Z,4.07
2023-03-22T12:19:57.919Z,12.27
2023-03-22T12:22:32.814Z,8.07
2023-03-22T12:24:59.610Z,9.35
2023-03-22T12:27:33.183Z,8.82
2023-03-22T12:30:12.153Z,5.22
2023-03-22T12:32:46.880Z,5.80
2023-03-22T12:37:51.332Z,5.88
2023-03-22T12:40:32.636Z,6.70
2023-03-22T12:43:15.652Z,8.48
2023-03-22T12:45:52.659Z,5.95
2023-03-22T12:48:25.334Z,9.88
2023-03-22T12:51:04.954Z,8.70
2023-03-22T12:53:36.204Z,6.05
2023-03-22T12:56:03.058Z,9.60
2023-03-22T12:58:29.413Z,7.85
2023-03-22T13:00:59.554Z,6.20
2023-03-22T13:03:44.854Z,6.75
2023-03-22T13:06:24.559Z,7.55
2023-03-22T13:09:10.691Z,5.88
2023-03-22T13:11:37.030Z,8.15
2023-03-22T13:14:03.396Z,5.25
2023-03-22T13:16:51.920Z,7.40
2023-03-22T13:19:37.773Z,8.73
2023-03-22T13:22:19.972Z,6.35
2023-03-22T13:25:04.772Z,4.88
2023-03-22T13:27:36.429Z,6.55
2023-03-22T13:30:02.975Z,4.63
2023-03-22T13:32:31.927Z,5.35
2023-03-22T13:34:59.168Z,4.50
2023-03-22T13:37:34.805Z,7.38
2023-03-22T13:40:12.639Z,6.55
2023-03-22T13:42:40.115Z,6.25
2023-03-22T13:45:28.914Z,6.57
2023-03-22T13:48:30.267Z,8.07
2023-03-22T13:50:57.484Z,6.35
2023-03-22T13:53:30.711Z,5.57
2023-03-22T13:56:00.545Z,3.13
2023-03-22T13:58:29.966Z,3.88
2023-03-22T14:00:57.393Z,3.88
2023-03-22T14:03:30.669Z,3.97
2023-03-22T14:06:03.876Z,4.45
2023-03-22T14:08:32.383Z,4.28
2023-03-22T14:11:07.389Z,5.22
2023-03-22T14:13:42.674Z,3.47
2023-03-22T14:16:17.966Z,3.97
2023-03-22T14:18:48.261Z,3.53
2023-03-22T14:21:21.718Z,3.67
